• Join FlightAware (Why Join?)
  • Login
  • US Flag 
08:00PM EST


 

Airport Tracker/Info


-or-


 

Live Flight TrackerFlight Track Log ✈ AWE1425 ✈ 12-May-2013 ✈ TXKF / BDA - KPHL

Flight Track Log - Related Links

Times and Time Zones

All times are in EDT time to prevent confusion due to time zone crossing. See the AWE1425 flight status page for this flight to view local times or setup timezone preferences in your user account.

Time Position Orientation Groundspeed Altitude Reporting Facility
EDT Latitude Longitude Course Direction KTS MPH feet Rate Location/Type
02:02PM 32.3667 -64.6833 287° West 402 463 1,500  Level New York Oceanic (ODAPS)
02:04PM 32.4612 -65.0594 290° West  Level FlightAware Approximate
02:05PM 32.4980 -65.1919 287° West  Level FlightAware Approximate
02:05PM 32.3667 -64.6833 287° West 403 464 10,000  Level New York Oceanic (ODAPS)
02:06PM 32.5315 -65.3258 287° West  Level FlightAware Approximate
02:07PM 32.5617 -65.4608 285° West  Level FlightAware Approximate
02:08PM 32.5917 -65.5959 285° West  Level FlightAware Approximate
02:08PM 32.3667 -64.6833 287° West 372 428 10,000  Level New York Oceanic (ODAPS)
02:09PM 32.6329 -65.7278 287° West 402 463 1,500 7,260 Descending FlightAware Transoceanic
02:09PM 32.3667 -64.6833 287° West 372 428 18,000  Climbing New York Oceanic (ODAPS)
02:10PM 32.6656 -65.8588 286° West 402 463 1,500 -15,480 Descending FlightAware Transoceanic
02:11PM 32.6981 -65.9898 286° West 402 463 1,500 4,200 Level FlightAware Transoceanic
02:12PM 32.7174 -66.0676 286° West 403 464 10,000 13,980 Climbing FlightAware Transoceanic
02:12PM 32.3667 -64.6833 287° West 372 428 23,000  Climbing New York Oceanic (ODAPS)
02:13PM 32.7485 -66.1939 286° West 403 464 10,000 -8,880 Descending FlightAware Transoceanic
02:14PM 32.7795 -66.3204 286° West 403 464 10,000  Level FlightAware Transoceanic
02:15PM 32.7805 -66.3248 286° West 372 428 10,000 3,960 Level FlightAware Transoceanic
02:16PM 32.8093 -66.4426 286° West 372 428 18,000 3,960 Climbing FlightAware Transoceanic
02:17PM 32.8379 -66.5605 286° West 372 428 18,000 2,460 Level FlightAware Transoceanic
02:18PM 32.8664 -66.6785 286° West 372 428 23,000 2,460 Climbing FlightAware Transoceanic
02:19PM 32.8949 -66.7965 286° West 372 428 23,000  Level FlightAware Transoceanic
02:20PM 32.9231 -66.9146 286° West 372 428 23,000  Level FlightAware Transoceanic
02:21PM 32.9513 -67.0328 286° West 372 428 23,000  Level FlightAware Transoceanic
02:22PM 32.9794 -67.1511 286° West 372 428 23,000  Level FlightAware Transoceanic
02:23PM 33.0074 -67.2695 286° West 372 428 23,000  Level FlightAware Transoceanic
02:24PM 33.0352 -67.3879 286° West 372 428 23,000  Level FlightAware Transoceanic
02:25PM 33.0630 -67.5064 286° West 372 428 23,000  Level FlightAware Transoceanic
02:26PM 33.0906 -67.6250 286° West 372 428 23,000  Level FlightAware Transoceanic
02:27PM 33.1181 -67.7436 285° West 372 428 23,000  Level FlightAware Transoceanic
02:28PM 33.1455 -67.8623 285° West 372 428 23,000  Level FlightAware Transoceanic
02:29PM 33.1728 -67.9811 285° West 372 428 23,000  Level FlightAware Transoceanic
02:30PM 33.2000 -68.1000 323° Northwest 372 428 23,000  Level FlightAware Transoceanic
02:31PM 33.3014 -68.1898 323° Northwest 372 428 23,000  Level FlightAware Transoceanic
02:32PM 33.4027 -68.2798 323° Northwest 372 428 23,000  Level FlightAware Transoceanic
02:33PM 33.5040 -68.3701 323° Northwest 372 428 23,000 6,300 Level FlightAware Transoceanic
02:33PM 33.2000 -68.1000 323° Northwest 443 510 31,000  Climbing New York Oceanic (ODAPS)
02:34PM 33.6052 -68.4605 323° Northwest 372 428 23,000 -4,620 Descending FlightAware Transoceanic
02:35PM 33.7064 -68.5512 323° Northwest 372 428 23,000  Level FlightAware Transoceanic
02:36PM 33.8075 -68.6420 323° Northwest 372 428 23,000  Level FlightAware Transoceanic
02:37PM 33.9085 -68.7331 323° Northwest 372 428 23,000  Level FlightAware Transoceanic
02:38PM 34.0094 -68.8244 323° Northwest 372 428 23,000 3,960 Level FlightAware Transoceanic
02:39PM 34.0094 -68.8244 323° Northwest 443 510 31,000 3,960 Climbing FlightAware Transoceanic
02:40PM 34.1103 -68.9159 323° Northwest 443 510 31,000  Level FlightAware Transoceanic
02:41PM 34.2111 -69.0077 323° Northwest 443 510 31,000  Level FlightAware Transoceanic
02:42PM 34.3118 -69.0996 323° Northwest 443 510 31,000  Level FlightAware Transoceanic
02:43PM 34.4125 -69.1918 323° Northwest 443 510 31,000  Level FlightAware Transoceanic
02:44PM 34.5131 -69.2842 323° Northwest 443 510 31,000  Level FlightAware Transoceanic
02:45PM 34.6136 -69.3768 323° Northwest 443 510 31,000  Level FlightAware Transoceanic
02:46PM 34.7141 -69.4697 323° Northwest 443 510 31,000  Level FlightAware Transoceanic
02:47PM 34.8145 -69.5628 323° Northwest 443 510 31,000  Level FlightAware Transoceanic
02:48PM 34.9148 -69.6561 323° Northwest 443 510 31,000  Level FlightAware Transoceanic
02:49PM 35.0151 -69.7496 323° Northwest 443 510 31,000  Level FlightAware Transoceanic
02:50PM 35.1152 -69.8433 323° Northwest 443 510 31,000  Level FlightAware Transoceanic
02:51PM 35.2153 -69.9373 322° Northwest 443 510 31,000  Level FlightAware Transoceanic
02:52PM 35.3154 -70.0315 322° Northwest 443 510 31,000  Level FlightAware Transoceanic
02:53PM 35.4153 -70.1260 322° Northwest 443 510 31,000  Level FlightAware Transoceanic
02:54PM 35.5152 -70.2207 322° Northwest 443 510 31,000  Level FlightAware Transoceanic
02:55PM 35.6150 -70.3156 322° Northwest 443 510 31,000  Level FlightAware Transoceanic
02:56PM 35.7148 -70.4108 322° Northwest 443 510 31,000  Level FlightAware Transoceanic
02:57PM 35.8144 -70.5062 322° Northwest 443 510 31,000 480 Level FlightAware Transoceanic
02:57PM 35.7667 -70.4500 322° Northwest 443 510 32,000  Climbing New York Oceanic (ODAPS)
02:58PM 35.9140 -70.6018 322° Northwest 443 510 31,000 -960 Descending FlightAware Transoceanic
02:59PM 36.0135 -70.6977 322° Northwest 443 510 31,000  Level FlightAware Transoceanic
03:00PM 36.1129 -70.7938 322° Northwest 443 510 31,000  Level FlightAware Transoceanic
03:01PM 36.2123 -70.8902 322° Northwest 443 510 31,000  Level FlightAware Transoceanic
03:02PM 36.3116 -70.9868 322° Northwest 443 510 31,000  Level FlightAware Transoceanic
03:03PM 36.4108 -71.0836 322° Northwest 443 510 31,000 480 Level FlightAware Transoceanic
03:04PM 36.4399 -71.1061 322° Northwest 443 510 32,000 480 Climbing FlightAware Transoceanic
03:05PM 36.5357 -71.2008 322° Northwest 443 510 32,000  Level FlightAware Transoceanic
03:06PM 36.6315 -71.2957 321° Northwest 443 510 32,000  Level FlightAware Transoceanic
03:07PM 36.7273 -71.3908 321° Northwest 443 510 32,000  Level FlightAware Transoceanic
03:08PM 36.8229 -71.4862 321° Northwest 443 510 32,000  Level FlightAware Transoceanic
03:09PM 36.9185 -71.5818 321° Northwest 443 510 32,000  Level FlightAware Transoceanic
03:10PM 37.0140 -71.6777 321° Northwest 443 510 32,000  Level FlightAware Transoceanic
03:10PM 37.0350 -71.6875 321° Northwest 450 518 32,000  Level New York Center
03:11PM 37.1094 -71.7738 321° Northwest 443 510 32,000 -120 Level FlightAware Transoceanic
03:11PM 37.1361 -71.7878 322° Northwest 458 527 31,900  Descending New York Center
03:12PM 37.2047 -71.8701 321° Northwest 443 510 32,000  Climbing FlightAware Transoceanic
03:12PM 37.2147 -71.8697 320° Northwest 453 521 31,900  Descending New York Center
03:13PM 37.3239 -72.0047 315° West 447 514 32,000  Climbing New York Center
03:14PM 37.4039 -72.1211 311° West 447 514 32,000  Level New York Center
03:15PM 37.4903 -72.2353 314° West 447 514 32,000 -60 Level New York Center
03:16PM 37.5719 -72.3522 311° West 447 514 31,900 -120 Descending New York Center
03:17PM 37.6394 -72.4586 309° West 441 507 31,800 -600 Descending New York Center
03:18PM 37.7314 -72.5814 313° West 441 507 30,800 -960 Descending New York Center
03:19PM 37.8131 -72.6967 312° West 442 509 29,900 -960 Descending New York Center
03:20PM 37.8922 -72.8172 310° West 437 503 28,900 -1,020 Descending New York Center
03:21PM 37.9800 -72.9278 315° West 437 503 27,900 -1,020 Descending New York Center
03:22PM 38.0611 -73.0383 313° West 442 509 26,900 -1,200 Descending New York Center
03:23PM 38.1339 -73.1542 309° West 430 495 25,600 -1,440 Descending New York Center
03:24PM 38.2133 -73.2519 316° Northwest 413 475 24,100 -1,500 Descending New York Center
03:25PM 38.2839 -73.3600 310° West 400 460 22,600 -1,560 Descending New York Center
03:26PM 38.3547 -73.4606 312° West 388 447 21,100 -1,560 Descending New York Center
03:28PM 38.5036 -73.6656 313° West 366 421 17,700 -1,560 Descending Washington Center
03:29PM 38.5697 -73.7542 314° West 356 410 16,200 -900 Descending Washington Center
03:30PM 38.6253 -73.8511 306° West 351 404 16,000 -120 Descending Washington Center
03:31PM 38.6747 -73.9536 302° West 343 395 16,000 -420 Level Washington Center
03:32PM 38.7406 -74.0400 314° West 338 389 15,200 -1,020 Descending Washington Center
03:33PM 38.8125 -74.1211 319° Northwest 338 389 14,000 -960 Descending Washington Center
03:34PM 38.8822 -74.2022 318° Northwest 338 389 13,300 -900 Descending Washington Center
03:35PM 38.9478 -74.2786 318° Northwest 328 377 12,200 -1,200 Descending Washington Center
03:36PM 39.0153 -74.3547 319° Northwest 323 372 11,000 -600 Descending Washington Center
03:37PM 39.0806 -74.4311 318° Northwest 318 366 11,000  Level Washington Center
03:38PM 39.1458 -74.5078 318° Northwest 318 366 11,000 -120 Level Washington Center
03:39PM 39.2133 -74.5844 319° Northwest 318 366 10,800 -720 Descending Washington Center
03:41PM 39.3167 -74.7167 315° West 268 308 9,000 -660 Descending Philadelphia TRACON
03:42PM 39.3667 -74.7667 322° Northwest 272 313 9,000  Level Philadelphia TRACON
03:43PM 39.4333 -74.8333 322° Northwest 267 307 9,000  Level Philadelphia TRACON
03:44PM 39.4833 -74.9000 314° West 268 308 9,000 -480 Level Philadelphia TRACON
03:45PM 39.5500 -74.9333 339° North 283 326 8,100 -1,200 Descending Philadelphia TRACON
03:46PM 39.6333 -74.9500 351° North 277 319 6,700 -1,200 Descending Philadelphia TRACON
03:46PM 39.6833 -74.9333 14° North 261 300 6,000 -480 Descending Philadelphia TRACON
03:47PM 39.7667 -74.9167 North 258 297 5,800 -600 Descending Philadelphia TRACON
03:48PM 39.8333 -74.9167 360° North 219 252 4,800 -960 Descending Philadelphia TRACON
03:49PM 39.8667 -74.9667 311° West 183 211 4,000 -1,020 Descending Philadelphia TRACON
03:50PM 39.8833 -75.0167 293° West 171 197 2,800 -1,200 Descending Philadelphia TRACON